createdAt,value
2022-08-11T00:01:49.686Z,99.90
2022-08-11T00:04:17.488Z,99.90
2022-08-11T00:06:45.363Z,99.90
2022-08-11T00:09:17.345Z,99.90
2022-08-11T00:11:46.173Z,99.90
2022-08-11T00:14:20.434Z,99.90
2022-08-11T00:17:06.610Z,99.90
2022-08-11T00:20:13.748Z,99.90
2022-08-11T00:22:30.170Z,99.90
2022-08-11T00:25:02.073Z,99.90
2022-08-11T00:27:33.542Z,99.90
2022-08-11T00:30:00.282Z,99.90
2022-08-11T00:32:27.718Z,99.90
2022-08-11T00:35:54.596Z,99.90
2022-08-11T00:37:45.924Z,99.90
2022-08-11T00:40:16.821Z,99.90
2022-08-11T00:42:52.918Z,99.90
2022-08-11T00:45:19.621Z,99.90
2022-08-11T00:47:58.420Z,99.90
2022-08-11T00:50:37.967Z,99.90
2022-08-11T00:53:14.236Z,99.90
2022-08-11T00:55:47.141Z,99.90
2022-08-11T00:58:40.081Z,99.90
2022-08-11T01:01:16.065Z,99.90
2022-08-11T01:03:42.798Z,99.90
2022-08-11T01:06:12.568Z,99.90
2022-08-11T01:08:45.308Z,99.90
2022-08-11T01:11:21.132Z,99.90
2022-08-11T01:14:06.385Z,99.90
2022-08-11T01:16:33.051Z,99.90
2022-08-11T01:19:14.965Z,99.90
2022-08-11T01:22:00.404Z,99.90
2022-08-11T01:24:30.252Z,99.90
2022-08-11T01:27:00.264Z,99.90
2022-08-11T01:29:49.289Z,99.90
2022-08-11T01:32:34.858Z,99.90
2022-08-11T01:35:20.438Z,99.90
2022-08-11T01:37:53.161Z,99.90
2022-08-11T01:40:19.989Z,99.90
2022-08-11T01:43:05.337Z,99.90
2022-08-11T01:45:58.124Z,99.90
2022-08-11T01:48:45.124Z,99.90
2022-08-11T01:51:34.992Z,99.90
2022-08-11T01:54:37.442Z,99.90
2022-08-11T01:57:06.801Z,99.90
2022-08-11T01:59:49.418Z,99.90
2022-08-11T02:02:21.423Z,99.90
2022-08-11T02:04:51.409Z,99.90
2022-08-11T02:07:35.950Z,99.90
2022-08-11T02:10:35.294Z,99.90
2022-08-11T02:13:15.992Z,99.90
2022-08-11T02:15:47.332Z,99.90
2022-08-11T02:18:56.100Z,99.90
2022-08-11T02:21:57.419Z,99.90
2022-08-11T02:24:28.657Z,99.90
2022-08-11T02:27:15.805Z,99.90
2022-08-11T02:30:04.970Z,99.90
2022-08-11T02:32:56.156Z,99.90
2022-08-11T02:35:27.979Z,99.90
2022-08-11T02:37:54.728Z,99.90
2022-08-11T02:40:25.117Z,99.90
2022-08-11T02:43:12.041Z,99.90
2022-08-11T02:45:56.709Z,99.90
2022-08-11T02:48:55.373Z,99.90
2022-08-11T02:51:24.885Z,99.90
2022-08-11T02:53:58.291Z,99.90
2022-08-11T02:56:37.413Z,99.90
2022-08-11T02:59:26.955Z,99.90
2022-08-11T03:02:09.171Z,99.90
2022-08-11T03:04:51.363Z,99.90
2022-08-11T03:07:56.622Z,99.90
2022-08-11T03:10:28.329Z,99.90
2022-08-11T03:13:32.653Z,99.90
2022-08-11T03:16:17.797Z,99.90
2022-08-11T03:19:03.046Z,99.90
2022-08-11T03:22:01.661Z,99.90
2022-08-11T03:24:29.284Z,99.90
2022-08-11T03:27:05.143Z,99.90
2022-08-11T03:29:31.853Z,99.90
2022-08-11T03:32:04.533Z,99.90
2022-08-11T03:34:32.709Z,99.90
2022-08-11T03:37:17.671Z,99.90
2022-08-11T03:40:07.369Z,99.90
2022-08-11T03:42:47.096Z,99.90
2022-08-11T03:45:22.798Z,99.90
2022-08-11T03:47:55.929Z,99.90
2022-08-11T03:50:27.287Z,99.90
2022-08-11T03:52:53.992Z,99.90
2022-08-11T03:55:22.009Z,99.90
2022-08-11T03:57:56.741Z,99.90
2022-08-11T04:00:42.370Z,99.90
2022-08-11T04:03:31.443Z,99.90
2022-08-11T04:06:16.529Z,99.90
2022-08-11T04:08:43.172Z,99.90
2022-08-11T04:11:28.562Z,99.90
2022-08-11T04:14:21.378Z,99.90
2022-08-11T04:17:01.624Z,99.90
2022-08-11T04:19:47.205Z,99.90
2022-08-11T04:22:23.243Z,99.90
2022-08-11T04:25:08.487Z,99.90
2022-08-11T04:27:44.391Z,99.90
2022-08-11T04:30:17.533Z,99.90
2022-08-11T04:32:53.353Z,99.90
2022-08-11T04:35:38.783Z,99.90
2022-08-11T04:38:05.527Z,99.90
2022-08-11T04:40:53.501Z,99.90
2022-08-11T04:44:02.750Z,99.90
2022-08-11T04:46:42.278Z,99.90
2022-08-11T04:49:46.553Z,99.90
2022-08-11T04:52:54.854Z,99.90
2022-08-11T04:55:58.853Z,99.90
2022-08-11T04:58:50.136Z,99.90
2022-08-11T05:01:41.067Z,99.90
2022-08-11T05:04:45.460Z,99.90
2022-08-11T05:07:14.891Z,99.90
2022-08-11T05:10:00.374Z,99.90
2022-08-11T05:12:36.283Z,99.90
2022-08-11T05:15:22.287Z,99.90
2022-08-11T05:18:19.596Z,99.90
2022-08-11T05:21:09.450Z,99.90
2022-08-11T05:23:58.138Z,99.90
2022-08-11T05:26:49.323Z,99.90
2022-08-11T05:30:01.217Z,99.90
2022-08-11T05:32:51.077Z,99.90
2022-08-11T05:36:02.163Z,99.90
2022-08-11T05:38:39.946Z,99.90
2022-08-11T05:41:25.769Z,99.90
2022-08-11T05:44:20.035Z,99.90
2022-08-11T05:47:08.025Z,99.90
2022-08-11T05:49:53.995Z,99.90
2022-08-11T05:52:43.341Z,99.90
2022-08-11T05:55:29.268Z,99.90
2022-08-11T05:57:57.497Z,99.90
2022-08-11T06:00:24.643Z,99.90
2022-08-11T06:02:55.447Z,99.90
2022-08-11T06:05:22.495Z,99.90
2022-08-11T06:07:54.417Z,99.90
2022-08-11T06:10:30.676Z,99.90
2022-08-11T06:12:58.184Z,99.90
2022-08-11T06:15:25.559Z,99.90
2022-08-11T06:17:52.311Z,99.90
2022-08-11T06:20:19.643Z,99.90
2022-08-11T06:22:52.494Z,99.90
2022-08-11T06:25:20.121Z,99.90
2022-08-11T06:27:47.153Z,99.90
2022-08-11T06:30:18.875Z,99.90
2022-08-11T06:32:46.105Z,99.90
2022-08-11T06:35:19.428Z,99.90
2022-08-11T06:38:06.463Z,99.90
2022-08-11T06:41:10.633Z,99.90
2022-08-11T06:43:56.387Z,99.90
2022-08-11T06:46:28.526Z,99.90
2022-08-11T06:48:56.273Z,99.90
2022-08-11T06:51:23.147Z,99.90
2022-08-11T06:54:04.739Z,99.90
2022-08-11T06:57:06.718Z,99.90
2022-08-11T06:59:59.264Z,99.90
2022-08-11T07:02:33.666Z,99.90
2022-08-11T07:05:02.620Z,99.90
2022-08-11T07:07:51.171Z,99.90
2022-08-11T07:10:48.421Z,99.90
2022-08-11T07:13:45.335Z,99.90
2022-08-11T07:16:16.262Z,99.90
2022-08-11T07:19:02.067Z,99.90
2022-08-11T07:22:03.087Z,99.90
2022-08-11T07:25:02.329Z,99.90
2022-08-11T07:27:55.916Z,99.90
2022-08-11T07:30:24.688Z,99.90
2022-08-11T07:32:52.870Z,99.90
2022-08-11T07:35:27.442Z,99.90
2022-08-11T07:38:02.071Z,99.90
2022-08-11T07:40:30.163Z,99.90
2022-08-11T07:42:57.674Z,99.90
2022-08-11T07:45:43.706Z,99.90
2022-08-11T07:48:29.419Z,99.90
2022-08-11T07:51:15.105Z,99.90
2022-08-11T07:53:57.864Z,99.90
2022-08-11T07:56:39.481Z,99.90
2022-08-11T07:59:59.912Z,99.90
2022-08-11T08:02:41.252Z,99.90
2022-08-11T08:05:27.098Z,99.90
2022-08-11T08:08:12.270Z,99.90
2022-08-11T08:10:57.417Z,99.90
2022-08-11T08:13:42.512Z,99.90
2022-08-11T08:16:27.790Z,99.90
2022-08-11T08:18:54.612Z,99.90
2022-08-11T08:21:21.840Z,99.90
2022-08-11T08:23:53.744Z,99.90
2022-08-11T08:26:41.875Z,99.90
2022-08-11T08:29:33.803Z,99.90
2022-08-11T08:32:02.829Z,99.90
2022-08-11T08:34:32.380Z,99.90
2022-08-11T08:37:00.506Z,99.90
2022-08-11T08:39:27.351Z,99.90
2022-08-11T08:41:55.049Z,99.90
2022-08-11T08:44:40.802Z,99.90
2022-08-11T08:47:10.752Z,99.90
2022-08-11T08:49:40.286Z,99.90
2022-08-11T08:52:31.761Z,99.90
2022-08-11T08:54:57.101Z,99.90
2022-08-11T08:57:24.172Z,99.90
2022-08-11T08:59:51.767Z,99.90
2022-08-11T09:02:33.566Z,99.90
2022-08-11T09:05:00.990Z,99.90
2022-08-11T09:07:32.663Z,99.90
2022-08-11T09:10:06.831Z,99.90
2022-08-11T09:12:35.904Z,99.90
2022-08-11T09:15:08.056Z,99.90
2022-08-11T09:18:06.008Z,99.90
2022-08-11T09:20:36.785Z,99.90
2022-08-11T09:24:07.133Z,99.90
2022-08-11T09:26:31.012Z,99.90
2022-08-11T09:28:59.052Z,99.90
2022-08-11T09:31:26.837Z,99.90
2022-08-11T09:33:54.803Z,99.90
2022-08-11T09:36:40.651Z,99.90
2022-08-11T09:39:26.350Z,99.90
2022-08-11T09:42:23.715Z,99.90
2022-08-11T09:44:49.558Z,99.90
2022-08-11T09:47:28.051Z,99.90
2022-08-11T09:50:02.070Z,99.90
2022-08-11T09:52:30.882Z,99.90
2022-08-11T09:54:57.841Z,99.90
2022-08-11T09:57:43.780Z,99.90
2022-08-11T10:00:13.347Z,99.90
2022-08-11T10:02:43.338Z,99.90
2022-08-11T10:05:29.869Z,99.90
2022-08-11T10:07:57.120Z,99.90
2022-08-11T10:10:24.235Z,99.90
2022-08-11T10:12:59.799Z,99.90
2022-08-11T10:15:35.565Z,99.90
2022-08-11T10:18:28.549Z,99.90
2022-08-11T10:21:02.676Z,99.90
2022-08-11T10:28:09.079Z,99.90
2022-08-11T10:30:34.530Z,99.90
2022-08-11T10:33:37.663Z,99.90
2022-08-11T10:36:15.985Z,99.90
2022-08-11T10:38:45.853Z,99.90
2022-08-11T10:41:32.352Z,99.90
2022-08-11T10:44:03.068Z,99.90
2022-08-11T10:46:49.800Z,99.90
2022-08-11T10:49:18.967Z,99.90
2022-08-11T10:52:04.471Z,99.90
2022-08-11T10:54:52.087Z,99.90
2022-08-11T10:57:37.964Z,99.90
2022-08-11T11:00:06.845Z,99.90
2022-08-11T11:02:34.579Z,99.90
2022-08-11T11:05:09.819Z,99.90
2022-08-11T11:07:44.100Z,99.90
2022-08-11T11:10:11.403Z,99.90
2022-08-11T11:12:58.920Z,99.90
2022-08-11T11:15:45.680Z,99.90
2022-08-11T11:18:25.553Z,99.90
2022-08-11T11:20:55.013Z,99.90
2022-08-11T11:23:38.249Z,99.90
2022-08-11T11:26:27.695Z,99.90
2022-08-11T11:28:54.670Z,99.90
2022-08-11T11:31:40.106Z,99.90
2022-08-11T11:34:17.068Z,99.90
2022-08-11T11:36:51.843Z,99.90
2022-08-11T11:39:23.175Z,99.90
2022-08-11T11:41:51.194Z,99.90
2022-08-11T11:44:18.198Z,99.90
2022-08-11T11:46:45.549Z,99.90
2022-08-11T11:49:16.770Z,99.90
2022-08-11T11:51:47.406Z,99.90
2022-08-11T11:54:17.751Z,99.90
2022-08-11T11:56:45.553Z,99.90
2022-08-11T11:59:31.302Z,99.90
2022-08-11T12:01:58.035Z,99.90
2022-08-11T12:04:25.783Z,99.90
2022-08-11T12:07:13.107Z,99.90
2022-08-11T12:09:40.050Z,99.90
2022-08-11T12:12:25.453Z,99.90
2022-08-11T12:14:53.598Z,99.90
2022-08-11T12:17:20.945Z,99.90
2022-08-11T12:19:48.746Z,99.90
2022-08-11T12:22:34.197Z,99.90
2022-08-11T12:25:19.847Z,99.90
2022-08-11T12:27:47.002Z,98.70
2022-08-11T12:30:13.910Z,97.20
2022-08-11T12:32:41.523Z,97.30
2022-08-11T12:35:08.633Z,98.30
2022-08-11T12:37:36.932Z,96.80
2022-08-11T12:40:42.559Z,96.70
2022-08-11T12:43:39.254Z,96.80
2022-08-11T12:46:29.188Z,98.80
2022-08-11T12:49:16.279Z,99.10
2022-08-11T12:52:14.810Z,98.50
2022-08-11T12:54:52.163Z,97.20
2022-08-11T12:57:57.654Z,97.50
2022-08-11T13:00:43.837Z,97.30
2022-08-11T13:03:29.921Z,96.80
2022-08-11T13:05:57.878Z,96.00
2022-08-11T13:08:25.517Z,97.50
2022-08-11T13:11:12.395Z,97.20
2022-08-11T13:13:54.738Z,94.70
2022-08-11T13:16:28.668Z,94.60
2022-08-11T13:18:57.454Z,94.90
2022-08-11T13:21:24.513Z,93.90
2022-08-11T13:24:00.873Z,95.00
2022-08-11T13:26:47.254Z,95.00
2022-08-11T13:29:26.348Z,96.10
2022-08-11T13:31:54.384Z,94.70
2022-08-11T13:34:23.002Z,96.10
2022-08-11T13:36:54.572Z,94.40
2022-08-11T13:39:26.179Z,93.90
2022-08-11T13:41:55.147Z,94.40
2022-08-11T13:44:25.869Z,95.70
2022-08-11T13:47:01.663Z,94.70
2022-08-11T13:49:29.655Z,94.80
2022-08-11T13:51:56.658Z,95.30
2022-08-11T13:54:25.409Z,94.90
2022-08-11T13:56:54.109Z,94.10
2022-08-11T13:59:23.025Z,92.50
2022-08-11T14:02:21.344Z,94.40
2022-08-11T14:04:41.659Z,93.00
2022-08-11T14:07:09.634Z,93.90
2022-08-11T14:09:37.656Z,93.50
2022-08-11T14:12:27.560Z,93.40
2022-08-11T14:15:08.695Z,93.70
2022-08-11T14:17:48.142Z,94.50
2022-08-11T14:20:40.310Z,93.20
2022-08-11T14:23:04.542Z,93.50
2022-08-11T14:26:00.277Z,92.00
2022-08-11T14:28:33.931Z,94.60
2022-08-11T14:31:03.438Z,95.30
2022-08-11T14:33:57.924Z,92.80
2022-08-11T14:36:19.787Z,94.30
2022-08-11T14:38:47.208Z,94.10
2022-08-11T14:41:32.662Z,93.70
2022-08-11T14:44:17.737Z,92.80
2022-08-11T14:47:03.387Z,94.60
2022-08-11T14:49:30.877Z,92.90
2022-08-11T14:51:58.521Z,92.10
2022-08-11T14:54:44.493Z,92.70
2022-08-11T14:57:11.440Z,93.20
2022-08-11T14:59:38.263Z,93.00
2022-08-11T15:02:24.260Z,95.50
2022-08-11T15:04:51.548Z,94.30
2022-08-11T15:07:20.134Z,94.70
2022-08-11T15:10:11.876Z,94.40
2022-08-11T15:12:34.504Z,95.10
2022-08-11T15:15:23.502Z,95.80
2022-08-11T15:17:52.952Z,95.20
2022-08-11T15:20:39.406Z,95.40
2022-08-11T15:23:25.137Z,94.40
2022-08-11T15:26:02.409Z,95.20
2022-08-11T15:28:49.860Z,94.70
2022-08-11T15:31:35.449Z,95.00
2022-08-11T15:34:24.727Z,94.80
2022-08-11T15:37:13.643Z,94.50
2022-08-11T15:40:00.434Z,94.40
2022-08-11T15:42:46.452Z,94.30
2022-08-11T15:45:32.641Z,93.90
2022-08-11T15:48:07.637Z,93.90
2022-08-11T15:50:42.158Z,93.90
2022-08-11T15:53:12.401Z,95.60
2022-08-11T15:55:39.323Z,94.00
2022-08-11T15:58:27.247Z,95.00
2022-08-11T16:01:13.494Z,94.80
2022-08-11T16:04:09.451Z,95.30
2022-08-11T16:06:47.514Z,93.90
2022-08-11T16:09:19.116Z,94.60
2022-08-11T16:11:46.717Z,94.60
2022-08-11T16:14:32.944Z,94.10
2022-08-11T16:16:59.950Z,94.10
2022-08-11T16:19:28.869Z,92.90
2022-08-11T16:21:56.288Z,93.20
2022-08-11T16:27:01.505Z,93.90
2022-08-11T16:27:14.523Z,93.30
2022-08-11T16:29:44.466Z,93.90
2022-08-11T16:32:21.777Z,92.50
2022-08-11T16:35:09.691Z,92.80
2022-08-11T16:37:55.966Z,93.20
2022-08-11T16:40:23.242Z,92.80
2022-08-11T16:43:11.423Z,92.60
2022-08-11T16:45:58.334Z,92.70
2022-08-11T16:48:35.621Z,93.20
2022-08-11T16:51:04.440Z,92.50
2022-08-11T16:53:59.765Z,93.10
2022-08-11T16:56:23.313Z,91.90
2022-08-11T16:59:18.459Z,91.50
2022-08-11T17:01:48.721Z,92.20
2022-08-11T17:04:43.389Z,92.20
2022-08-11T17:07:41.736Z,92.30
2022-08-11T17:10:58.774Z,93.30
2022-08-11T17:13:31.562Z,92.90
2022-08-11T17:16:07.334Z,92.80
2022-08-11T17:18:44.766Z,93.10
2022-08-11T17:21:14.571Z,93.40
2022-08-11T17:23:52.374Z,93.40
2022-08-11T17:26:24.364Z,93.70
2022-08-11T17:28:56.957Z,93.90
2022-08-11T17:31:42.965Z,93.40
2022-08-11T17:34:28.672Z,93.90
2022-08-11T17:36:55.833Z,94.30
2022-08-11T17:39:29.367Z,93.60
2022-08-11T17:42:15.434Z,94.00
2022-08-11T17:45:01.030Z,94.20
2022-08-11T17:47:47.604Z,94.50
2022-08-11T17:50:17.099Z,94.50
2022-08-11T17:53:04.038Z,93.90
2022-08-11T17:55:52.488Z,93.90
2022-08-11T17:58:39.647Z,92.80
2022-08-11T18:01:09.392Z,94.30
2022-08-11T18:03:40.046Z,94.40
2022-08-11T18:06:12.953Z,95.70
2022-08-11T18:09:05.668Z,96.50
2022-08-11T18:12:06.621Z,97.90
2022-08-11T18:14:57.384Z,98.70
2022-08-11T18:17:42.518Z,99.90
2022-08-11T18:20:28.243Z,99.50
2022-08-11T18:23:14.427Z,99.90
2022-08-11T18:26:02.645Z,99.90
2022-08-11T18:28:56.227Z,99.90
2022-08-11T18:31:42.470Z,99.90
2022-08-11T18:34:29.049Z,99.90
2022-08-11T18:37:24.808Z,99.90
2022-08-11T18:40:15.568Z,99.90
2022-08-11T18:43:02.342Z,99.90
2022-08-11T18:45:47.555Z,99.90
2022-08-11T18:48:42.524Z,99.90
2022-08-11T18:51:36.981Z,99.90
2022-08-11T18:54:27.410Z,99.90
2022-08-11T18:57:15.147Z,99.90
2022-08-11T19:00:01.162Z,99.90
2022-08-11T19:02:49.297Z,99.90
2022-08-11T19:06:31.895Z,99.90
2022-08-11T19:08:43.184Z,99.90
2022-08-11T19:11:29.924Z,99.90
2022-08-11T19:14:16.013Z,99.90
2022-08-11T19:17:02.240Z,99.90
2022-08-11T19:19:48.810Z,99.90
2022-08-11T19:22:35.227Z,99.90
2022-08-11T19:25:25.534Z,99.90
2022-08-11T19:28:12.503Z,99.90
2022-08-11T19:30:58.074Z,99.90
2022-08-11T19:34:01.156Z,99.90
2022-08-11T19:36:50.102Z,99.90
2022-08-11T19:39:35.876Z,99.90
2022-08-11T19:42:21.787Z,99.90
2022-08-11T19:45:07.034Z,99.90
2022-08-11T19:48:03.394Z,99.90
2022-08-11T19:50:59.354Z,99.90
2022-08-11T19:53:46.111Z,99.90
2022-08-11T19:56:31.286Z,99.90
2022-08-11T19:59:17.385Z,99.90
2022-08-11T20:02:13.365Z,99.90
2022-08-11T20:05:00.202Z,99.90
2022-08-11T20:07:46.992Z,99.90
2022-08-11T20:10:34.357Z,99.90
2022-08-11T20:13:21.748Z,99.90
2022-08-11T20:16:08.259Z,99.90
2022-08-11T20:18:54.363Z,99.90
2022-08-11T20:21:40.058Z,99.90
2022-08-11T20:24:26.145Z,99.90
2022-08-11T20:27:24.025Z,99.90
2022-08-11T20:30:09.631Z,99.90
2022-08-11T20:32:55.500Z,99.90
2022-08-11T20:35:41.663Z,99.90
2022-08-11T20:38:27.273Z,99.90
2022-08-11T20:41:13.996Z,99.90
2022-08-11T20:44:08.116Z,99.90
2022-08-11T20:46:58.025Z,99.90
2022-08-11T20:49:52.588Z,99.90
2022-08-11T20:52:44.244Z,99.90
2022-08-11T20:55:51.230Z,99.90
2022-08-11T21:01:44.969Z,99.90
2022-08-11T21:04:30.908Z,99.90
2022-08-11T21:07:28.981Z,99.90
2022-08-11T21:10:23.803Z,99.90
2022-08-11T21:13:23.990Z,99.90
2022-08-11T21:16:26.248Z,99.90
2022-08-11T21:19:59.548Z,99.90
2022-08-11T21:22:59.680Z,99.90
2022-08-11T21:25:52.921Z,99.90
2022-08-11T21:28:38.599Z,99.90
2022-08-11T21:31:25.754Z,99.90
2022-08-11T21:34:11.786Z,99.90
2022-08-11T21:36:58.521Z,99.90
2022-08-11T21:39:44.684Z,99.90
2022-08-11T21:42:30.378Z,99.90
2022-08-11T21:45:16.881Z,99.90
2022-08-11T21:48:02.634Z,99.90
2022-08-11T21:50:48.203Z,99.90
2022-08-11T21:53:33.904Z,99.90
2022-08-11T21:56:20.034Z,99.90
2022-08-11T21:59:06.882Z,99.90
2022-08-11T22:01:53.268Z,99.90
2022-08-11T22:04:38.995Z,99.90
2022-08-11T22:07:24.705Z,99.90
2022-08-11T22:10:37.010Z,99.90
2022-08-11T22:13:15.136Z,99.90
2022-08-11T22:16:00.811Z,99.90
2022-08-11T22:18:46.428Z,99.90
2022-08-11T22:22:02.741Z,99.90
2022-08-11T22:24:41.991Z,99.90
2022-08-11T22:27:28.478Z,99.90
2022-08-11T22:30:13.767Z,99.90
2022-08-11T22:32:59.309Z,99.90
2022-08-11T22:35:45.084Z,99.90
2022-08-11T22:38:30.549Z,99.90
2022-08-11T22:41:16.200Z,99.90
2022-08-11T22:44:01.462Z,99.90
2022-08-11T22:46:48.049Z,99.90
2022-08-11T22:49:56.224Z,99.90
2022-08-11T22:52:40.714Z,99.90
2022-08-11T22:55:27.081Z,99.90
2022-08-11T22:58:13.239Z,99.90
2022-08-11T23:00:59.201Z,99.90
2022-08-11T23:03:46.122Z,99.90
2022-08-11T23:06:32.763Z,99.90
2022-08-11T23:09:20.099Z,99.90
2022-08-11T23:12:06.899Z,99.90
2022-08-11T23:14:54.070Z,99.90
2022-08-11T23:17:40.846Z,99.90
2022-08-11T23:20:34.490Z,99.90
2022-08-11T23:23:29.822Z,99.90
2022-08-11T23:26:16.082Z,99.90
2022-08-11T23:29:05.393Z,99.90
2022-08-11T23:31:53.055Z,99.90
2022-08-11T23:35:02.639Z,99.90
2022-08-11T23:37:45.072Z,99.90
2022-08-11T23:40:30.157Z,99.90
2022-08-11T23:43:16.323Z,99.90
2022-08-11T23:46:01.435Z,99.90
2022-08-11T23:48:48.525Z,99.90
2022-08-11T23:51:41.018Z,99.90
2022-08-11T23:54:28.179Z,99.90
2022-08-11T23:57:13.943Z,99.90
2022-08-11T23:59:58.949Z,99.90
